Test XHTML 1.0 Strict Page for WU-History Testing
Station Historical Data
 
Daily Summary for September 17, 2014 Units:  Both    English   Metric
« Previous Day
Next Day »
Daily Weekly Monthly Yearly Custom
  Current: High: Low: Average:
Temperature: 54.5 °F /  12.5 °C 57.6 °F /  14.2 °C 54.5 °F /  12.5 °C 55.4 °F /  13 °C
Dew Point: 53.7 °F /  12.1 °C 55.6 °F /  13.1 °C 53.4 °F /  11.9 °C 54.1 °F /  12.3 °C
Humidity: 97% 97% 92% 96%
Wind Speed: 0.0mph /  0km/h 6.9mph /  11.1km/h - 2.8mph /  4.5km/h
Wind Gust: 0.7mph /  1.1km/h 6.9mph /  11.1km/h - -
WindCalm - - SSE
Pressure: 29.98 in /  1015.1 hPa 30.01 in /  1016.1 hPa 29.98 in /  1015.1 hPa -
Precipitation: 0.00 in /  0 mm      
Historical Graphs
 
 
Weather-Above Climate History
Untitled
Tabular Data for September 17, 2014
Time Temperature Dew Point Pressure Wind Wind Speed Wind Gust Humidity Rainfall Rate (Hourly)
00:03 57.2 °F /  14 °C 55.2 °F /  12.9 °C 30.01in /  1016.1hPa WSW 5.8mph /  9.3km/h 5.8mph /  9.3km/h 93% 0.00in /  0cm
00:08 57.6 °F /  14.2 °C 55.6 °F /  13.1 °C 30.01in /  1016.1hPa South 2.3mph /  3.7km/h 2.3mph /  3.7km/h 93% 0.00in /  0cm
00:13 57.0 °F /  13.9 °C 55.0 °F /  12.8 °C 30.01in /  1016.1hPa SW 3.4mph /  5.5km/h 3.4mph /  5.5km/h 93% 0.00in /  0cm
00:18 57.0 °F /  13.9 °C 55.0 °F /  12.8 °C 30.01in /  1016.1hPa SE 6.9mph /  11.1km/h 6.9mph /  11.1km/h 93% 0.00in /  0cm
00:23 57.0 °F /  13.9 °C 55.0 °F /  12.8 °C 30.00in /  1015.8hPa South 5.2mph /  8.4km/h 5.2mph /  8.4km/h 93% 0.00in /  0cm
00:28 57.0 °F /  13.9 °C 55.0 °F /  12.8 °C 30.01in /  1016.1hPa SSE 4.6mph /  7.4km/h 4.6mph /  7.4km/h 93% 0.00in /  0cm
00:33 56.7 °F /  13.7 °C 54.4 °F /  12.4 °C 30.01in /  1016.1hPa SSW 3.5mph /  5.6km/h 3.5mph /  5.6km/h 92% 0.00in /  0cm
00:38 56.1 °F /  13.4 °C 54.1 °F /  12.3 °C 30.01in /  1016.1hPa SSE 2.9mph /  4.7km/h 2.9mph /  4.7km/h 93% 0.00in /  0cm
00:43 55.8 °F /  13.2 °C 54.1 °F /  12.3 °C 30.01in /  1016.1hPa East 3.5mph /  5.6km/h 3.5mph /  5.6km/h 94% 0.00in /  0cm
00:48 56.1 °F /  13.4 °C 54.1 °F /  12.3 °C 30.01in /  1016.1hPa Calm     93% 0.00in /  0cm
00:53 55.4 °F /  13 °C 53.7 °F /  12.1 °C 30.01in /  1016.1hPa Calm     94% 0.00in /  0cm
00:58 55.4 °F /  13 °C 54.0 °F /  12.2 °C 30.01in /  1016.1hPa Calm     95% 0.00in /  0cm
01:03 55.2 °F /  12.9 °C 53.5 °F /  11.9 °C 30.01in /  1016.1hPa Calm     94% 0.00in /  0cm
01:08 55.4 °F /  13 °C 53.7 °F /  12.1 °C 30.01in /  1016.1hPa ESE 4.6mph /  7.4km/h 4.6mph /  7.4km/h 94% 0.00in /  0cm
01:13 55.9 °F /  13.3 °C 54.5 °F /  12.5 °C 30.01in /  1016.1hPa ESE 1.2mph /  1.9km/h 1.2mph /  1.9km/h 95% 0.00in /  0cm
01:18 55.8 °F /  13.2 °C 54.6 °F /  12.6 °C 30.00in /  1015.8hPa Calm     96% 0.00in /  0cm
01:23 55.2 °F /  12.9 °C 53.8 °F /  12.1 °C 30.01in /  1016.1hPa NNE 2.3mph /  3.7km/h 2.3mph /  3.7km/h 95% 0.00in /  0cm
01:28 55.2 °F /  12.9 °C 53.8 °F /  12.1 °C 30.00in /  1015.8hPa ENE 1.2mph /  1.9km/h 1.3mph /  2.1km/h 95% 0.00in /  0cm
01:33 55.2 °F /  12.9 °C 54.1 °F /  12.3 °C 30.00in /  1015.8hPa Calm   0.5mph /  0.8km/h 96% 0.00in /  0cm
01:38 54.9 °F /  12.7 °C 53.7 °F /  12.1 °C 30.00in /  1015.8hPa NNE 1.2mph /  1.9km/h 1.2mph /  1.9km/h 96% 0.00in /  0cm
01:43 54.9 °F /  12.7 °C 53.7 °F /  12.1 °C 30.00in /  1015.8hPa South 4.6mph /  7.4km/h 4.6mph /  7.4km/h 96% 0.00in /  0cm
01:48 54.7 °F /  12.6 °C 53.6 °F /  12 °C 30.00in /  1015.8hPa SSW 3.5mph /  5.6km/h 3.5mph /  5.6km/h 96% 0.00in /  0cm
01:53 54.7 °F /  12.6 °C 53.8 °F /  12.1 °C 30.00in /  1015.8hPa SW 2.3mph /  3.7km/h   97% 0.00in /  0cm
01:57 54.5 °F /  12.5 °C 53.4 °F /  11.9 °C 30.00in /  1015.8hPa West 3.5mph /  5.6km/h 3.5mph /  5.6km/h 96% 0.00in /  0cm
02:02 55.2 °F /  12.9 °C 54.4 °F /  12.4 °C 30.00in /  1015.8hPa WNW 5.8mph /  9.3km/h 5.8mph /  9.3km/h 97% 0.00in /  0cm
02:07 55.8 °F /  13.2 °C 54.9 °F /  12.7 °C 30.00in /  1015.8hPa SSE 4.3mph /  6.9km/h 4.3mph /  6.9km/h 97% 0.00in /  0cm
02:12 55.9 °F /  13.3 °C 54.8 °F /  12.7 °C 29.99in /  1015.5hPa West 3.5mph /  5.6km/h 3.5mph /  5.6km/h 96% 0.00in /  0cm
02:17 56.1 °F /  13.4 °C 55.0 °F /  12.8 °C 29.99in /  1015.5hPa SSE 4.6mph /  7.4km/h 4.6mph /  7.4km/h 96% 0.00in /  0cm
02:22 56.3 °F /  13.5 °C 55.2 °F /  12.9 °C 29.99in /  1015.5hPa WSW 5.8mph /  9.3km/h 5.8mph /  9.3km/h 96% 0.00in /  0cm
02:27 55.8 °F /  13.2 °C 54.3 °F /  12.4 °C 30.00in /  1015.8hPa West 2.9mph /  4.7km/h 2.9mph /  4.7km/h 95% 0.00in /  0cm
02:32 55.9 °F /  13.3 °C 54.8 °F /  12.7 °C 30.00in /  1015.8hPa WNW 6.9mph /  11.1km/h 6.9mph /  11.1km/h 96% 0.00in /  0cm
02:37 55.9 °F /  13.3 °C 54.8 °F /  12.7 °C 30.00in /  1015.8hPa East 1.2mph /  1.9km/h   96% 0.00in /  0cm
02:42 55.4 °F /  13 °C 54.3 °F /  12.4 °C 30.00in /  1015.8hPa WSW 3.5mph /  5.6km/h 3.5mph /  5.6km/h 96% 0.00in /  0cm
02:47 55.2 °F /  12.9 °C 54.1 °F /  12.3 °C 30.00in /  1015.8hPa SSW 2.5mph /  4km/h 2.5mph /  4km/h 96% 0.00in /  0cm
02:52 54.9 °F /  12.7 °C 53.7 °F /  12.1 °C 30.00in /  1015.8hPa SSE 1.2mph /  1.9km/h 1.2mph /  1.9km/h 96% 0.00in /  0cm
02:57 55.0 °F /  12.8 °C 53.6 °F /  12 °C 30.00in /  1015.8hPa SE 2.3mph /  3.7km/h   95% 0.00in /  0cm
03:02 54.9 °F /  12.7 °C 53.7 °F /  12.1 °C 30.00in /  1015.8hPa South 4.0mph /  6.4km/h 4.0mph /  6.4km/h 96% 0.00in /  0cm
03:07 54.9 °F /  12.7 °C 53.7 °F /  12.1 °C 30.00in /  1015.8hPa SSE 2.3mph /  3.7km/h 2.3mph /  3.7km/h 96% 0.00in /  0cm
03:12 54.9 °F /  12.7 °C 53.7 °F /  12.1 °C 30.00in /  1015.8hPa NNE 2.3mph /  3.7km/h 2.3mph /  3.7km/h 96% 0.00in /  0cm
03:17 54.9 °F /  12.7 °C 54.0 °F /  12.2 °C 30.00in /  1015.8hPa Calm   0.1mph /  0.2km/h 97% 0.00in /  0cm
03:22 54.9 °F /  12.7 °C 54.0 °F /  12.2 °C 29.99in /  1015.5hPa East 1.2mph /  1.9km/h 1.2mph /  1.9km/h 97% 0.00in /  0cm
03:27 54.5 °F /  12.5 °C 53.7 °F /  12.1 °C 29.99in /  1015.5hPa NE 1.2mph /  1.9km/h   97% 0.00in /  0cm
03:32 54.7 °F /  12.6 °C 53.8 °F /  12.1 °C 30.00in /  1015.8hPa East 2.3mph /  3.7km/h 2.3mph /  3.7km/h 97% 0.00in /  0cm
03:37 54.7 °F /  12.6 °C 53.8 °F /  12.1 °C 29.99in /  1015.5hPa North 0.6mph /  1km/h 0.6mph /  1km/h 97% 0.00in /  0cm
03:42 54.5 °F /  12.5 °C 53.7 °F /  12.1 °C 29.99in /  1015.5hPa Calm     97% 0.00in /  0cm
03:47 54.7 °F /  12.6 °C 53.8 °F /  12.1 °C 29.99in /  1015.5hPa Calm     97% 0.00in /  0cm
03:52 54.9 °F /  12.7 °C 54.0 °F /  12.2 °C 29.99in /  1015.5hPa WNW 0.5mph /  0.8km/h   97% 0.00in /  0cm
03:57 54.5 °F /  12.5 °C 53.4 °F /  11.9 °C 29.99in /  1015.5hPa SSE 5.8mph /  9.3km/h 5.8mph /  9.3km/h 96% 0.00in /  0cm
04:02 54.5 °F /  12.5 °C 53.7 °F /  12.1 °C 29.99in /  1015.5hPa SW 6.9mph /  11.1km/h 6.9mph /  11.1km/h 97% 0.00in /  0cm
04:07 55.0 °F /  12.8 °C 54.2 °F /  12.3 °C 29.99in /  1015.5hPa East 5.8mph /  9.3km/h 5.8mph /  9.3km/h 97% 0.00in /  0cm
04:12 54.5 °F /  12.5 °C 53.7 °F /  12.1 °C 29.99in /  1015.5hPa SSW 3.9mph /  6.3km/h 3.9mph /  6.3km/h 97% 0.00in /  0cm
04:17 54.5 °F /  12.5 °C 53.4 °F /  11.9 °C 29.98in /  1015.1hPa West 3.5mph /  5.6km/h 3.5mph /  5.6km/h 96% 0.00in /  0cm
04:22 54.5 °F /  12.5 °C 53.7 °F /  12.1 °C 29.98in /  1015.1hPa Calm   0.7mph /  1.1km/h 97% 0.00in /  0cm
Wether-Above
Compliments of Weather Underground
Welcome to Weather-Above
Cheddleton weather station supplies various organisations with data from our weather station one of them is the weather Underground this information displayed here is coming from the weather Underground server 

If any information is used please acknowledge the source to www weather-above.com or weather Underground